Conata, South Dakota
Current Conditions -  °F | °C
As of 1:52 AM on Tuesday 21 Oct 2014 (Local Time) from KRAP Reporting Station
Clear Clear  
Wind Chill: 51°   Ceiling: Unl
Heat Index: 51°   Visibility: 10mi
Dew Point: 41°   Wind: 13mph
Humidity: 68%   Direction: 150°SSE
Pressure: 29.86"   Gusts: NA
Location:  43.793°N, 102.433°W
Report Text: KRAP 210752Z AUTO 15011KT 10SM CLR 11/05 A2986 RMK AO2 SLP098 T01060050
Loading
Personal Weather Stations






























Interactive Weather Map
Tropical Storm Tracking
New forecast layout! Learn more

10-Day Weather Forecast

Advertisements
Track Severe Weather on mobile